Time;durP1;ratioP1;P1;durP2;ratioP2;P2;SDS_P1;SDS_P2;PMS_P1;PMS_P2;Temp;Humidity;BMP_temperature;BMP_pressure;BME280_temperature;BME280_humidity;BME280_pressure;Samples;Min_cycle;Max_cycle;Signal;HPM_P1;HPM_P2
2021/10/18 00:00:17;;;;;;;24.40;16.07;;;7.50;99.90;;;;;;6205249;23;20439;-90
2021/10/18 00:02:43;;;;;;;26.40;16.23;;;7.30;99.90;;;;;;6204643;23;20488;-89
2021/10/18 00:05:13;;;;;;;27.07;16.70;;;7.10;99.90;;;;;;6204829;23;20406;-89
2021/10/18 00:07:47;;;;;;;31.37;16.60;;;7.00;99.90;;;;;;6204913;23;20399;-89
2021/10/18 00:10:31;;;;;;;35.63;15.07;;;7.00;99.90;;;;;;6204119;23;20405;-88
2021/10/18 00:12:56;;;;;;;40.17;16.60;;;6.90;99.90;;;;;;6204321;23;20830;-89
2021/10/18 00:15:22;;;;;;;33.03;16.73;;;6.70;99.90;;;;;;6202885;23;20390;-89
2021/10/18 00:17:48;;;;;;;40.37;18.57;;;6.60;99.90;;;;;;6204906;23;20171;-89
2021/10/18 00:20:17;;;;;;;115.20;19.60;;;6.60;99.90;;;;;;6204636;23;20184;-89
2021/10/18 00:22:43;;;;;;;73.17;18.57;;;6.60;99.90;;;;;;6204733;23;20194;-89
2021/10/18 00:25:09;;;;;;;81.53;18.97;;;6.50;99.90;;;;;;6203268;23;20446;-89
2021/10/18 00:27:35;;;;;;;68.73;18.40;;;6.60;99.90;;;;;;6204141;23;20777;-90
2021/10/18 00:30:02;;;;;;;71.00;20.70;;;6.60;99.90;;;;;;6204345;23;20386;-90
2021/10/18 00:32:51;;;;;;;42.13;19.13;;;6.60;99.90;;;;;;6205779;23;20397;-91
2021/10/18 00:35:17;;;;;;;55.03;19.07;;;6.80;99.90;;;;;;6203775;23;20977;-90
2021/10/18 00:37:43;;;;;;;37.20;17.93;;;6.80;99.90;;;;;;6202811;23;20400;-90
2021/10/18 00:40:10;;;;;;;41.60;18.60;;;6.70;99.90;;;;;;6206614;23;20438;-90
2021/10/18 00:42:38;;;;;;;44.07;18.33;;;6.80;99.90;;;;;;6206209;23;20174;-90
2021/10/18 00:45:15;;;;;;;36.17;18.23;;;7.00;99.90;;;;;;6205971;23;20395;-89
2021/10/18 00:47:41;;;;;;;50.50;19.73;;;6.90;99.90;;;;;;6207609;23;20499;-90
2021/10/18 00:50:07;;;;;;;40.83;16.77;;;7.00;99.90;;;;;;6205766;23;20433;-89
2021/10/18 00:52:35;;;;;;;32.37;16.03;;;7.00;99.90;;;;;;6205011;23;20546;-89
2021/10/18 00:55:02;;;;;;;32.97;16.70;;;7.20;99.90;;;;;;6205641;23;20398;-89
2021/10/18 00:57:27;;;;;;;28.10;15.57;;;7.20;99.90;;;;;;6206564;23;20401;-90
2021/10/18 00:59:55;;;;;;;38.23;16.50;;;7.30;99.90;;;;;;6207086;23;20768;-90
2021/10/18 01:02:21;;;;;;;48.17;17.80;;;7.30;99.90;;;;;;6204456;23;20528;-90
2021/10/18 01:05:08;;;;;;;55.70;18.07;;;7.20;99.90;;;;;;6204927;23;20463;-89
2021/10/18 01:07:34;;;;;;;41.53;17.13;;;7.30;99.90;;;;;;6205243;23;20484;-89
2021/10/18 01:10:00;;;;;;;81.90;19.67;;;7.30;99.90;;;;;;6204362;23;20540;-90
2021/10/18 01:12:26;;;;;;;55.53;19.20;;;7.40;99.90;;;;;;6206325;23;20420;-91
2021/10/18 01:14:52;;;;;;;49.17;19.90;;;7.40;99.90;;;;;;6204082;23;20398;-90
2021/10/18 01:17:18;;;;;;;72.10;22.83;;;7.50;99.90;;;;;;6205362;23;20161;-90
2021/10/18 01:19:44;;;;;;;41.70;19.40;;;7.50;99.90;;;;;;6205286;23;20190;-90
2021/10/18 01:22:09;;;;;;;94.53;22.83;;;7.50;99.90;;;;;;6208008;23;20260;-91
2021/10/18 01:24:36;;;;;;;54.57;20.63;;;7.60;99.90;;;;;;6210202;23;20383;-90
2021/10/18 01:27:03;;;;;;;44.40;19.70;;;7.60;99.90;;;;;;6218800;23;20193;-89
2021/10/18 01:29:38;;;;;;;44.20;19.30;;;7.60;99.90;;;;;;6205674;23;20401;-89
2021/10/18 01:32:08;;;;;;;42.50;18.77;;;7.70;99.90;;;;;;6205908;23;20428;-89
2021/10/18 01:34:36;;;;;;;63.17;19.17;;;7.80;99.90;;;;;;6205752;23;20403;-89
2021/10/18 01:37:05;;;;;;;75.17;21.67;;;7.70;99.90;;;;;;6207524;23;20401;-90
2021/10/18 01:39:38;;;;;;;59.30;19.87;;;7.70;99.90;;;;;;6206399;23;20391;-89
2021/10/18 01:42:10;;;;;;;56.40;20.90;;;7.60;99.90;;;;;;6203974;23;20415;-90
2021/10/18 01:44:49;;;;;;;68.03;21.70;;;7.70;99.90;;;;;;6181652;23;20438;-89
2021/10/18 01:47:15;;;;;;;58.57;21.83;;;7.60;99.90;;;;;;6178809;23;20413;-89
2021/10/18 01:49:41;;;;;;;48.47;19.60;;;7.60;99.90;;;;;;6204998;23;20386;-89
2021/10/18 01:52:06;;;;;;;48.37;21.77;;;7.60;99.90;;;;;;6204332;23;20159;-90
2021/10/18 01:54:32;;;;;;;39.77;18.40;;;7.70;99.90;;;;;;6205195;23;20656;-89
2021/10/18 01:56:58;;;;;;;39.20;17.33;;;7.80;99.90;;;;;;6208162;23;20241;-89
2021/10/18 01:59:24;;;;;;;40.13;18.50;;;7.90;99.90;;;;;;6203220;23;20555;-90
2021/10/18 02:01:49;;;;;;;34.93;15.00;;;8.00;99.90;;;;;;6205244;23;20179;-89
2021/10/18 02:04:15;;;;;;;47.90;18.70;;;7.90;99.90;;;;;;6205744;23;20645;-90
2021/10/18 02:06:49;;;;;;;34.27;17.60;;;7.80;99.90;;;;;;6206255;23;20166;-90
2021/10/18 02:09:15;;;;;;;48.00;18.40;;;7.80;99.90;;;;;;6204917;23;20204;-90
2021/10/18 02:11:41;;;;;;;45.00;19.20;;;7.60;99.90;;;;;;6207278;23;20776;-90
2021/10/18 02:14:06;;;;;;;43.93;19.70;;;7.50;99.90;;;;;;6205508;23;20190;-90
2021/10/18 02:16:32;;;;;;;44.57;18.47;;;7.50;99.90;;;;;;6206048;23;20172;-90
2021/10/18 02:18:58;;;;;;;58.90;20.13;;;7.60;99.90;;;;;;6207268;23;20220;-89
2021/10/18 02:21:23;;;;;;;49.53;18.37;;;7.50;99.90;;;;;;6206466;23;20283;-89
2021/10/18 02:23:51;;;;;;;50.87;18.67;;;7.50;99.90;;;;;;6206694;23;20587;-89
2021/10/18 02:26:16;;;;;;;71.20;20.87;;;7.40;99.90;;;;;;6205201;23;20172;-89
2021/10/18 02:28:42;;;;;;;66.93;21.33;;;7.30;99.90;;;;;;6205889;23;20906;-89
2021/10/18 02:31:08;;;;;;;61.57;20.30;;;7.30;99.90;;;;;;6206401;23;20165;-90
2021/10/18 02:33:33;;;;;;;70.23;22.57;;;7.30;99.90;;;;;;6206963;23;20239;-90
2021/10/18 02:36:02;;;;;;;83.83;22.47;;;7.30;99.90;;;;;;6206446;23;20173;-90
2021/10/18 02:38:28;;;;;;;71.47;22.30;;;7.30;99.90;;;;;;6180402;23;20170;-90
2021/10/18 02:40:53;;;;;;;59.47;20.97;;;7.40;99.90;;;;;;6206517;23;20493;-90
2021/10/18 02:43:20;;;;;;;53.83;22.43;;;7.40;99.90;;;;;;6206456;23;20172;-90
2021/10/18 02:45:48;;;;;;;41.83;18.97;;;7.50;99.90;;;;;;6205743;23;20221;-90
2021/10/18 02:48:14;;;;;;;42.50;19.57;;;7.70;99.90;;;;;;6206964;23;20398;-90
2021/10/18 02:50:40;;;;;;;45.30;20.23;;;7.80;99.90;;;;;;6206105;23;20402;-90
2021/10/18 02:53:06;;;;;;;40.30;19.73;;;7.90;99.90;;;;;;6207255;23;20401;-90
2021/10/18 02:55:33;;;;;;;43.80;19.30;;;8.00;99.90;;;;;;6219899;23;20163;-89
2021/10/18 02:57:59;;;;;;;39.20;17.60;;;8.00;99.90;;;;;;6211453;23;20463;-89
2021/10/18 03:00:25;;;;;;;43.97;17.30;;;8.00;99.90;;;;;;6205242;23;20522;-89
2021/10/18 03:02:51;;;;;;;43.03;16.97;;;8.00;99.90;;;;;;6204306;23;20167;-88
2021/10/18 03:05:17;;;;;;;50.57;20.80;;;8.10;99.90;;;;;;6205858;23;20253;-90
2021/10/18 03:11:09;;;;;;;35.93;17.07;;;8.10;99.90;;;;;;6206108;23;20381;-89
2021/10/18 03:13:44;;;;;;;36.17;16.70;;;8.00;99.90;;;;;;6179825;23;20777;-89
2021/10/18 03:16:09;;;;;;;34.53;16.03;;;8.00;99.90;;;;;;6204306;23;20807;-90
2021/10/18 03:18:36;;;;;;;44.13;15.97;;;8.10;99.90;;;;;;6203732;23;20563;-90
2021/10/18 03:21:03;;;;;;;38.43;15.93;;;8.10;99.90;;;;;;6205561;23;20199;-89
2021/10/18 03:23:29;;;;;;;39.43;17.03;;;8.10;99.90;;;;;;6204241;23;20419;-89
2021/10/18 03:25:54;;;;;;;56.70;18.10;;;8.10;99.90;;;;;;6205512;23;20402;-89
2021/10/18 03:28:20;;;;;;;41.30;17.00;;;8.10;99.90;;;;;;6203935;23;20492;-89
2021/10/18 03:30:46;;;;;;;37.30;17.67;;;7.90;99.90;;;;;;6204489;23;20167;-89
2021/10/18 03:33:12;;;;;;;49.73;19.20;;;8.00;99.90;;;;;;6207487;23;20224;-89
2021/10/18 03:35:38;;;;;;;51.53;18.00;;;8.00;99.90;;;;;;6204051;23;20399;-89
2021/10/18 03:38:04;;;;;;;36.83;17.30;;;7.90;99.90;;;;;;6204413;23;20403;-90
2021/10/18 03:40:30;;;;;;;39.27;19.03;;;8.00;99.90;;;;;;6204371;23;20250;-89
2021/10/18 03:42:55;;;;;;;47.43;19.80;;;8.10;99.90;;;;;;6204768;23;20402;-89
2021/10/18 03:45:21;;;;;;;49.03;18.87;;;8.00;99.90;;;;;;6204922;23;20163;-89
2021/10/18 03:47:47;;;;;;;48.77;20.30;;;7.90;99.90;;;;;;6201202;23;20171;-89
2021/10/18 03:50:15;;;;;;;48.47;19.80;;;7.80;99.90;;;;;;6205595;23;20169;-89
2021/10/18 03:52:41;;;;;;;49.60;20.20;;;7.90;99.90;;;;;;6204190;23;20401;-89
2021/10/18 03:55:07;;;;;;;36.27;17.13;;;8.00;99.90;;;;;;6203236;23;20801;-88
2021/10/18 03:57:32;;;;;;;37.13;17.20;;;8.10;99.90;;;;;;6204678;23;20605;-89
2021/10/18 03:59:58;;;;;;;39.63;18.20;;;8.00;99.90;;;;;;6202105;23;20441;-88
2021/10/18 04:02:25;;;;;;;37.93;17.90;;;8.10;99.90;;;;;;6203831;23;20171;-90
2021/10/18 04:04:51;;;;;;;37.40;17.23;;;8.20;99.90;;;;;;6204630;23;20190;-90
2021/10/18 04:07:17;;;;;;;43.10;19.53;;;8.20;99.90;;;;;;6204917;23;20769;-89
2021/10/18 04:09:45;;;;;;;45.90;19.60;;;8.10;99.90;;;;;;6206309;23;20250;-87
2021/10/18 04:12:11;;;;;;;43.73;20.33;;;8.00;99.90;;;;;;6205573;23;20745;-90
2021/10/18 04:14:42;;;;;;;53.80;21.30;;;7.90;99.90;;;;;;6206935;23;20452;-89
2021/10/18 04:17:08;;;;;;;44.53;20.27;;;7.80;99.90;;;;;;6207380;23;20178;-90
2021/10/18 04:19:33;;;;;;;44.63;20.77;;;7.80;99.90;;;;;;6205276;23;20405;-89
2021/10/18 04:21:59;;;;;;;53.07;20.77;;;7.80;99.90;;;;;;6207621;23;20613;-88
2021/10/18 04:24:25;;;;;;;46.63;17.87;;;7.70;99.90;;;;;;6211150;23;20172;-89
2021/10/18 04:26:50;;;;;;;39.80;17.73;;;7.80;99.90;;;;;;6219579;23;20238;-88
2021/10/18 04:29:16;;;;;;;38.63;17.90;;;7.90;99.90;;;;;;6206066;23;20629;-89
2021/10/18 04:31:42;;;;;;;30.97;16.60;;;7.90;99.90;;;;;;6207285;23;20175;-90
2021/10/18 04:37:11;;;;;;;31.97;16.43;;;7.90;99.90;;;;;;6212460;23;20171;-92
2021/10/18 04:39:37;;;;;;;31.60;15.70;;;7.90;99.90;;;;;;6210827;23;20405;-96
2021/10/18 04:42:03;;;;;;;30.63;16.10;;;7.90;99.90;;;;;;6211534;23;20410;-95
2021/10/18 04:44:28;;;;;;;30.90;16.20;;;7.90;99.90;;;;;;6208265;23;20458;-92
2021/10/18 04:46:54;;;;;;;30.83;16.13;;;8.00;99.90;;;;;;6208524;23;20402;-93
2021/10/18 04:49:22;;;;;;;30.93;14.27;;;8.10;99.90;;;;;;6210197;23;20156;-92
2021/10/18 04:51:50;;;;;;;32.03;17.10;;;8.20;99.90;;;;;;6207380;23;20202;-92
2021/10/18 04:54:16;;;;;;;32.13;16.70;;;8.00;99.90;;;;;;6207757;23;20409;-91
2021/10/18 04:56:42;;;;;;;28.00;15.60;;;7.90;99.90;;;;;;6207138;23;20461;-91
2021/10/18 04:59:07;;;;;;;27.83;14.40;;;7.90;99.90;;;;;;6207411;23;20160;-90
2021/10/18 05:01:33;;;;;;;27.00;14.90;;;7.90;99.90;;;;;;6207608;23;20195;-91
2021/10/18 05:03:59;;;;;;;28.20;14.90;;;7.90;99.90;;;;;;6206132;23;20515;-91
2021/10/18 05:06:25;;;;;;;32.70;16.00;;;7.90;99.90;;;;;;6206938;23;20169;-91
2021/10/18 05:08:51;;;;;;;32.13;16.87;;;7.80;99.90;;;;;;6207919;23;20643;-94
2021/10/18 05:11:23;;;;;;;30.07;15.90;;;7.90;99.90;;;;;;6205780;23;20160;-91
2021/10/18 05:13:49;;;;;;;32.50;14.87;;;7.90;99.90;;;;;;6205511;23;20395;-90
2021/10/18 05:16:15;;;;;;;30.37;15.60;;;8.00;99.90;;;;;;6206041;23;20903;-92
2021/10/18 05:18:40;;;;;;;29.57;16.47;;;7.90;99.90;;;;;;6207772;23;20166;-90
2021/10/18 05:21:06;;;;;;;35.30;16.77;;;7.90;99.90;;;;;;6205831;23;20270;-90
2021/10/18 05:23:33;;;;;;;31.40;16.87;;;7.90;99.90;;;;;;6207108;23;20307;-89
2021/10/18 05:26:00;;;;;;;31.17;14.87;;;7.90;99.90;;;;;;6202251;23;20492;-92
2021/10/18 05:28:26;;;;;;;27.47;15.47;;;8.10;99.90;;;;;;6205545;23;20394;-91
2021/10/18 05:30:52;;;;;;;26.60;14.40;;;8.00;99.90;;;;;;6207948;23;21091;-94
2021/10/18 05:33:17;;;;;;;30.53;15.00;;;8.00;99.90;;;;;;6207682;23;20445;-91
2021/10/18 05:35:43;;;;;;;26.93;14.27;;;8.00;99.90;;;;;;6205693;23;20166;-92
2021/10/18 05:38:09;;;;;;;23.70;13.73;;;7.90;99.90;;;;;;6207821;23;20221;-91
2021/10/18 05:40:34;;;;;;;27.90;14.87;;;7.90;99.90;;;;;;6206402;23;20197;-92
2021/10/18 05:43:00;;;;;;;28.00;15.10;;;8.00;99.90;;;;;;6207558;23;20306;-94
2021/10/18 05:45:26;;;;;;;30.70;14.80;;;7.90;99.90;;;;;;6206111;23;20175;-92
2021/10/18 05:47:57;;;;;;;34.00;17.80;;;7.80;99.90;;;;;;6206775;23;20163;-89
2021/10/18 05:51:07;;;;;;;33.10;16.17;;;7.80;99.90;;;;;;6220908;23;20621;-95
2021/10/18 05:53:33;;;;;;;29.00;15.83;;;8.00;99.90;;;;;;6175155;23;20441;-95
2021/10/18 06:01:15;;;;;;;30.53;15.83;;;8.00;99.90;;;;;;6209492;23;20458;-94
2021/10/18 06:03:43;;;;;;;27.50;14.77;;;8.00;99.90;;;;;;6196538;23;20402;-95
2021/10/18 06:06:12;;;;;;;24.60;13.50;;;8.00;99.90;;;;;;6195783;23;20456;-96
2021/10/18 06:08:43;;;;;;;28.20;15.50;;;8.00;99.90;;;;;;6187074;23;20182;-92
2021/10/18 06:11:10;;;;;;;27.57;14.70;;;7.90;99.90;;;;;;6184647;23;20900;-91
2021/10/18 06:13:39;;;;;;;26.10;15.00;;;8.00;99.90;;;;;;6182776;23;20452;-92
2021/10/18 06:16:05;;;;;;;28.00;14.80;;;8.00;99.90;;;;;;6182349;23;20398;-90
2021/10/18 06:18:30;;;;;;;30.17;15.83;;;8.00;99.90;;;;;;6183349;23;20490;-92
2021/10/18 06:20:56;;;;;;;29.20;15.70;;;8.00;99.90;;;;;;6182568;23;20274;-93
2021/10/18 06:23:23;;;;;;;25.13;15.13;;;8.00;99.90;;;;;;6183595;23;20214;-92
2021/10/18 06:25:49;;;;;;;25.00;14.03;;;8.10;99.90;;;;;;6181743;23;20167;-91
2021/10/18 06:28:15;;;;;;;29.13;15.67;;;8.30;99.90;;;;;;6181721;23;20928;-91
2021/10/18 06:30:44;;;;;;;31.33;15.67;;;8.20;99.90;;;;;;6183086;23;20391;-92
2021/10/18 06:33:10;;;;;;;27.73;15.17;;;8.40;99.90;;;;;;6208119;23;20386;-90
2021/10/18 06:35:37;;;;;;;31.43;16.50;;;8.50;99.90;;;;;;6179968;23;20430;-91
2021/10/18 06:38:10;;;;;;;33.30;18.40;;;8.40;99.90;;;;;;6180512;23;20897;-90
2021/10/18 06:40:38;;;;;;;28.20;17.00;;;8.40;99.90;;;;;;6208065;23;20442;-90
2021/10/18 06:43:03;;;;;;;33.33;17.00;;;8.40;99.90;;;;;;6179275;23;20502;-91
2021/10/18 06:45:29;;;;;;;34.13;17.63;;;8.60;99.90;;;;;;6178249;23;20885;-91
2021/10/18 06:47:56;;;;;;;31.03;17.97;;;8.60;99.90;;;;;;6207986;23;20155;-92
2021/10/18 06:50:26;;;;;;;33.70;19.20;;;8.70;99.90;;;;;;6184681;23;20199;-93
2021/10/18 06:52:55;;;;;;;33.23;17.93;;;8.70;99.90;;;;;;6182406;23;20769;-93
2021/10/18 06:55:26;;;;;;;31.10;18.43;;;8.80;99.90;;;;;;6181740;23;20825;-93
2021/10/18 06:57:56;;;;;;;30.67;17.47;;;8.80;99.90;;;;;;6182456;23;20394;-92
2021/10/18 07:00:22;;;;;;;34.13;18.60;;;8.80;99.90;;;;;;6179578;23;20687;-92
2021/10/18 07:02:48;;;;;;;24.43;15.80;;;8.80;99.90;;;;;;6180715;23;20402;-90
2021/10/18 07:05:13;;;;;;;28.13;15.73;;;8.90;99.90;;;;;;6181035;23;20819;-91
2021/10/18 07:07:43;;;;;;;30.30;18.57;;;8.90;99.90;;;;;;6179628;23;20406;-92
2021/10/18 07:10:09;;;;;;;28.60;17.00;;;8.80;99.90;;;;;;6181144;23;20737;-91
2021/10/18 07:12:36;;;;;;;28.80;16.77;;;8.80;99.90;;;;;;6179224;23;20410;-92
2021/10/18 07:15:04;;;;;;;29.20;16.90;;;8.90;99.90;;;;;;6178753;23;20395;-90
2021/10/18 07:17:30;;;;;;;28.30;17.30;;;8.90;99.90;;;;;;6178482;23;20426;-92
2021/10/18 07:19:57;;;;;;;23.80;15.60;;;9.00;99.90;;;;;;6179432;23;20426;-90
2021/10/18 07:22:26;;;;;;;26.67;15.20;;;9.10;99.90;;;;;;6181146;23;20777;-92
2021/10/18 07:24:53;;;;;;;30.30;16.60;;;9.10;99.90;;;;;;6189276;23;20416;-89
2021/10/18 07:27:19;;;;;;;23.87;15.87;;;9.10;99.90;;;;;;6190677;23;20927;-92
2021/10/18 07:29:45;;;;;;;25.00;16.60;;;9.00;99.90;;;;;;6180521;23;20440;-90
2021/10/18 07:32:11;;;;;;;26.10;16.80;;;9.00;99.90;;;;;;6179762;23;20824;-90
2021/10/18 07:34:37;;;;;;;24.17;15.63;;;9.10;99.90;;;;;;6178372;23;20491;-90
2021/10/18 07:37:03;;;;;;;25.60;16.10;;;9.30;99.90;;;;;;6180483;23;20246;-90
2021/10/18 07:39:29;;;;;;;24.93;16.97;;;9.30;99.90;;;;;;6177975;23;20410;-88
2021/10/18 07:41:57;;;;;;;24.97;16.50;;;9.30;99.90;;;;;;6202708;23;20442;-91
2021/10/18 07:44:24;;;;;;;25.50;17.97;;;9.30;99.90;;;;;;6178621;23;20395;-91
2021/10/18 07:46:51;;;;;;;27.83;17.67;;;9.20;99.90;;;;;;6178656;23;20487;-93
2021/10/18 07:49:17;;;;;;;30.07;17.77;;;9.00;99.90;;;;;;6185956;23;20394;-91
2021/10/18 07:51:43;;;;;;;33.53;19.20;;;8.90;99.90;;;;;;6179449;23;20473;-88
2021/10/18 07:54:10;;;;;;;32.27;19.00;;;8.90;99.90;;;;;;6176978;23;20505;-86
2021/10/18 07:56:42;;;;;;;27.93;18.60;;;9.00;99.90;;;;;;6178273;23;20426;-89
2021/10/18 08:02:13;;;;;;;32.57;23.10;;;9.30;99.90;;;;;;6188581;23;20421;-86
2021/10/18 08:04:39;;;;;;;25.87;17.70;;;9.40;99.90;;;;;;6178673;23;20437;-87
2021/10/18 08:07:05;;;;;;;28.00;16.77;;;9.50;99.90;;;;;;6173221;23;20496;-88
2021/10/18 08:09:31;;;;;;;29.50;18.87;;;9.40;99.90;;;;;;6175157;23;20202;-89
2021/10/18 08:11:56;;;;;;;24.70;16.47;;;9.40;99.90;;;;;;6177688;23;20425;-89
2021/10/18 08:14:25;;;;;;;27.43;16.67;;;9.30;99.90;;;;;;6176436;23;20163;-89
2021/10/18 08:16:51;;;;;;;23.70;16.33;;;9.30;99.90;;;;;;6176198;23;20325;-88
2021/10/18 08:19:17;;;;;;;26.30;16.80;;;9.30;99.90;;;;;;6177195;23;20511;-89
2021/10/18 08:21:42;;;;;;;26.33;17.17;;;9.30;99.90;;;;;;6177818;23;20191;-88
2021/10/18 08:24:22;;;;;;;29.13;18.57;;;9.40;99.90;;;;;;6176888;23;20254;-89
2021/10/18 08:26:47;;;;;;;26.00;17.20;;;9.50;99.90;;;;;;6177542;23;20626;-88
2021/10/18 08:29:13;;;;;;;24.03;17.30;;;9.50;99.90;;;;;;6176018;23;20565;-89
2021/10/18 08:31:39;;;;;;;23.27;14.47;;;9.60;99.90;;;;;;6176207;23;20178;-87
2021/10/18 08:34:04;;;;;;;23.00;15.20;;;9.70;99.90;;;;;;6176071;23;20235;-87
2021/10/18 08:36:35;;;;;;;21.73;15.23;;;9.70;99.90;;;;;;6177405;23;20159;-88
2021/10/18 08:42:14;;;;;;;21.93;14.90;;;9.80;99.90;;;;;;6204172;23;20438;-88
2021/10/18 08:44:40;;;;;;;21.80;14.77;;;9.60;99.90;;;;;;6175648;23;20447;-87
2021/10/18 08:47:05;;;;;;;22.40;15.73;;;9.60;99.90;;;;;;6178698;23;20403;-88
2021/10/18 08:49:31;;;;;;;21.03;14.63;;;9.80;99.90;;;;;;6178428;23;20168;-88
2021/10/18 08:51:58;;;;;;;19.63;14.10;;;9.90;99.90;;;;;;6177991;23;20155;-89
2021/10/18 08:54:23;;;;;;;19.53;14.43;;;9.80;99.90;;;;;;6184476;23;20399;-88
2021/10/18 08:56:49;;;;;;;20.47;14.20;;;9.90;99.90;;;;;;6191738;23;20473;-88
2021/10/18 08:59:16;;;;;;;20.13;14.83;;;9.90;99.90;;;;;;6181975;23;20167;-90
2021/10/18 09:01:57;;;;;;;20.80;13.40;;;9.90;99.90;;;;;;6195492;23;20539;-90
2021/10/18 09:04:26;;;;;;;21.17;14.73;;;9.80;99.90;;;;;;6205444;23;20931;-89
2021/10/18 09:07:01;;;;;;;22.17;14.43;;;10.00;99.90;;;;;;6205464;23;20764;-88
2021/10/18 09:09:57;;;;;;;18.10;13.60;;;10.10;99.90;;;;;;6205169;23;20386;-89
2021/10/18 09:12:39;;;;;;;21.43;13.93;;;10.20;99.90;;;;;;6205663;23;20394;-89
2021/10/18 09:15:37;;;;;;;19.33;13.50;;;10.20;99.90;;;;;;6204553;23;20409;-89
2021/10/18 09:18:04;;;;;;;21.37;13.80;;;10.10;99.90;;;;;;6129775;23;20485;-89
2021/10/18 09:20:36;;;;;;;18.90;12.80;;;10.20;99.90;;;;;;6203987;23;20981;-88
2021/10/18 09:23:40;;;;;;;18.90;13.40;;;10.20;99.90;;;;;;6205246;23;20494;-89
2021/10/18 09:26:13;;;;;;;18.43;13.20;;;10.20;99.90;;;;;;6200197;23;20449;-90
2021/10/18 09:28:39;;;;;;;20.07;13.67;;;10.40;99.90;;;;;;6204689;23;20399;-89
2021/10/18 09:31:14;;;;;;;18.33;13.00;;;10.20;99.90;;;;;;6204190;23;20877;-88
2021/10/18 09:33:43;;;;;;;18.67;13.23;;;10.20;99.90;;;;;;6203535;23;20497;-89
2021/10/18 09:36:11;;;;;;;19.37;13.83;;;10.00;99.90;;;;;;6203817;23;20419;-89
2021/10/18 09:38:37;;;;;;;21.43;13.80;;;9.90;99.90;;;;;;6204007;23;20413;-91
2021/10/18 09:41:26;;;;;;;47.50;42.10;;;10.10;99.90;;;;;;6207406;23;20484;-92
2021/10/18 09:43:57;;;;;;;31.03;22.30;;;10.30;99.90;;;;;;6206707;23;20849;-90
2021/10/18 09:46:37;;;;;;;18.90;13.07;;;10.30;99.90;;;;;;6206310;23;20398;-91
2021/10/18 10:52:03;;;;;;;15.77;13.90;;;13.10;99.90;;;;;;6201064;23;20846;-90
2021/10/18 10:54:41;;;;;;;15.93;12.87;;;14.00;99.90;;;;;;6200966;23;20395;-89
2021/10/18 10:57:12;;;;;;;17.17;13.90;;;14.40;99.90;;;;;;6173353;23;20402;-89
2021/10/18 10:59:53;;;;;;;19.47;15.10;;;14.50;99.90;;;;;;6173956;23;20399;-89
2021/10/18 11:05:02;;;;;;;17.60;13.63;;;14.00;99.90;;;;;;6203006;23;20397;-91
2021/10/18 11:07:34;;;;;;;16.23;13.87;;;14.10;99.90;;;;;;6199889;23;20399;-91
2021/10/18 11:10:01;;;;;;;18.60;13.80;;;14.30;99.90;;;;;;6196898;23;20493;-90
2021/10/18 11:12:47;;;;;;;16.43;13.60;;;14.40;99.90;;;;;;6200311;23;20694;-92
2021/10/18 11:15:16;;;;;;;15.77;13.47;;;14.70;99.90;;;;;;6200378;23;20402;-90
2021/10/18 11:17:49;;;;;;;18.10;14.50;;;14.60;99.90;;;;;;6202502;23;20470;-90
2021/10/18 11:22:59;;;;;;;16.77;14.80;;;13.50;99.90;;;;;;6205512;23;20405;-90
2021/10/18 11:25:31;;;;;;;17.07;13.70;;;13.80;99.90;;;;;;6206472;23;20709;-90
2021/10/18 11:28:01;;;;;;;18.10;14.30;;;13.50;99.90;;;;;;6201415;23;20481;-90
2021/10/18 11:30:30;;;;;;;17.57;14.70;;;13.50;99.90;;;;;;6170162;23;20399;-91
2021/10/18 11:33:15;;;;;;;17.20;12.77;;;14.20;99.90;;;;;;6201278;23;20426;-88
2021/10/18 11:35:44;;;;;;;16.47;14.60;;;15.00;99.90;;;;;;6198906;23;20430;-90
2021/10/18 11:38:26;;;;;;;17.00;14.07;;;15.30;99.90;;;;;;6197778;23;20387;-90
2021/10/18 11:40:52;;;;;;;17.30;14.10;;;14.50;99.90;;;;;;6197702;23;21048;-85
2021/10/18 11:43:25;;;;;;;17.20;14.37;;;14.70;99.90;;;;;;6197973;23;20896;-87
2021/10/18 11:45:55;;;;;;;17.60;12.80;;;14.30;99.90;;;;;;6197894;23;20630;-87
2021/10/18 11:48:27;;;;;;;15.70;13.93;;;14.50;99.90;;;;;;6198324;23;20410;-87
2021/10/18 11:50:58;;;;;;;14.60;12.90;;;15.30;99.90;;;;;;6197746;23;20399;-88
2021/10/18 11:53:33;;;;;;;16.67;13.70;;;16.10;99.90;;;;;;6203608;23;20460;-89
2021/10/18 11:56:09;;;;;;;14.20;12.70;;;16.50;99.90;;;;;;6219028;23;20407;-90
2021/10/18 11:58:38;;;;;;;16.90;14.27;;;16.50;99.90;;;;;;6189267;23;20445;-91
2021/10/18 12:01:28;;;;;;;17.40;14.83;;;17.00;99.80;;;;;;6204468;23;20897;-90
2021/10/18 12:03:59;;;;;;;15.93;14.30;;;17.10;99.40;;;;;;6201343;23;21073;-90
2021/10/18 12:06:29;;;;;;;15.77;13.70;;;16.70;98.30;;;;;;6200598;23;20402;-89
2021/10/18 12:08:56;;;;;;;16.73;14.53;;;17.10;99.10;;;;;;6175723;23;20422;-91
2021/10/18 12:11:26;;;;;;;15.63;14.03;;;17.20;99.00;;;;;;6175240;23;20403;-87
2021/10/18 12:13:52;;;;;;;15.93;14.23;;;17.70;99.50;;;;;;6174800;23;20441;-89
2021/10/18 12:16:33;;;;;;;16.27;14.07;;;17.80;97.30;;;;;;6173949;23;20945;-90
2021/10/18 12:19:03;;;;;;;14.13;12.63;;;17.80;96.90;;;;;;6205007;23;20597;-90
2021/10/18 12:21:36;;;;;;;13.53;12.23;;;18.10;97.60;;;;;;6175339;23;20469;-89
2021/10/18 12:24:04;;;;;;;14.23;12.73;;;18.20;95.50;;;;;;6175757;23;20174;-89
2021/10/18 12:26:42;;;;;;;15.80;12.60;;;19.50;95.40;;;;;;6176822;23;20395;-90
2021/10/18 12:29:12;;;;;;;14.30;12.80;;;19.80;92.90;;;;;;6174045;23;20480;-89
2021/10/18 12:31:43;;;;;;;15.60;14.00;;;20.40;92.70;;;;;;6171321;23;20734;-88
2021/10/18 12:34:27;;;;;;;14.07;12.23;;;21.70;90.30;;;;;;6175495;23;20461;-89
2021/10/18 12:37:06;;;;;;;13.20;11.57;;;22.20;90.10;;;;;;6176632;23;20399;-89
2021/10/18 12:39:36;;;;;;;13.47;12.17;;;23.50;84.60;;;;;;6175076;23;20382;-92
2021/10/18 12:42:25;;;;;;;12.63;11.30;;;24.20;81.80;;;;;;6177252;23;20449;-91
2021/10/18 12:45:10;;;;;;;12.13;10.93;;;25.00;77.90;;;;;;6176783;23;20401;-92
2021/10/18 12:47:38;;;;;;;11.40;10.30;;;24.20;77.40;;;;;;6178561;23;20386;-92
2021/10/18 12:50:11;;;;;;;11.53;10.40;;;24.40;76.30;;;;;;6184214;23;20406;-92
2021/10/18 12:52:39;;;;;;;16.10;11.07;;;25.20;73.00;;;;;;6182829;23;20461;-91
2021/10/18 12:55:39;;;;;;;14.13;11.90;;;25.40;72.70;;;;;;6189454;23;20395;-93
2021/10/18 12:58:19;;;;;;;12.33;11.13;;;23.50;75.70;;;;;;6184011;23;20438;-90
2021/10/18 13:00:45;;;;;;;11.97;10.77;;;22.20;79.40;;;;;;6180612;23;20503;-89
2021/10/18 13:03:10;;;;;;;11.93;10.70;;;21.20;83.90;;;;;;6204896;23;20391;-89
2021/10/18 13:05:55;;;;;;;11.50;10.30;;;20.10;89.40;;;;;;6204931;23;20202;-88
2021/10/18 13:08:23;;;;;;;12.37;10.10;;;19.40;90.40;;;;;;6204582;23;20493;-88
2021/10/18 13:10:51;;;;;;;10.60;9.60;;;19.50;89.90;;;;;;6196945;23;20802;-89
2021/10/18 13:13:22;;;;;;;12.37;10.40;;;20.00;90.50;;;;;;6199892;23;20452;-88
2021/10/18 13:15:49;;;;;;;10.73;9.47;;;20.00;90.20;;;;;;6205993;23;20455;-89
2021/10/18 13:18:21;;;;;;;10.67;9.67;;;20.50;89.30;;;;;;6202904;23;20398;-89
2021/10/18 13:20:47;;;;;;;10.73;9.63;;;19.70;89.60;;;;;;6203154;23;20446;-89
2021/10/18 13:23:19;;;;;;;11.27;10.00;;;19.10;91.00;;;;;;6203195;23;20786;-88
2021/10/18 13:25:45;;;;;;;11.63;10.47;;;18.50;91.80;;;;;;6215596;23;20468;-87
2021/10/18 13:28:13;;;;;;;11.13;10.10;;;18.00;92.20;;;;;;6201031;23;20402;-89
2021/10/18 13:30:39;;;;;;;13.10;10.03;;;17.70;92.80;;;;;;6200747;23;20453;-90
2021/10/18 13:33:05;;;;;;;11.83;10.13;;;17.60;92.30;;;;;;6201049;23;20774;-91
2021/10/18 13:35:31;;;;;;;11.17;9.83;;;17.70;93.70;;;;;;6200654;23;20445;-90
2021/10/18 13:37:58;;;;;;;10.90;9.80;;;18.10;92.70;;;;;;6202366;23;20395;-90
2021/10/18 13:40:26;;;;;;;12.00;10.63;;;18.20;93.00;;;;;;6199803;23;20476;-90
2021/10/18 13:42:52;;;;;;;10.83;9.73;;;17.60;94.30;;;;;;6201382;23;20403;-90
2021/10/18 13:45:20;;;;;;;11.50;9.33;;;17.30;95.20;;;;;;6198905;23;20395;-91
2021/10/18 13:47:48;;;;;;;11.30;9.57;;;17.70;94.70;;;;;;6200703;23;20399;-89
2021/10/18 13:50:15;;;;;;;10.70;9.60;;;17.70;94.60;;;;;;6201171;23;20476;-91
2021/10/18 13:52:41;;;;;;;14.83;10.63;;;17.40;94.70;;;;;;6200476;23;20414;-91
2021/10/18 13:55:10;;;;;;;11.03;9.83;;;16.80;95.70;;;;;;6201927;23;20398;-91
2021/10/18 13:57:36;;;;;;;11.20;9.70;;;16.50;96.60;;;;;;6176192;23;20190;-89
2021/10/18 14:00:04;;;;;;;10.33;9.33;;;16.70;96.80;;;;;;6198384;23;20399;-90
2021/10/18 14:02:30;;;;;;;11.73;10.17;;;16.40;96.90;;;;;;6200784;23;20504;-90
2021/10/18 14:04:56;;;;;;;11.30;10.00;;;16.30;97.70;;;;;;6174019;23;20457;-90
2021/10/18 14:07:22;;;;;;;10.87;9.87;;;16.40;97.30;;;;;;6200588;23;20858;-90